sensor_id;sensor_type;location;lat;lon;timestamp;temperature;humidity
23385;DHT22;11865;45.394;10.978;2023-04-03T00:01:10;8.60;99.90
23385;DHT22;11865;45.394;10.978;2023-04-03T00:03:38;8.60;99.90
23385;DHT22;11865;45.394;10.978;2023-04-03T00:06:05;8.60;99.90
23385;DHT22;11865;45.394;10.978;2023-04-03T00:08:35;8.50;99.90
23385;DHT22;11865;45.394;10.978;2023-04-03T00:11:03;8.40;99.90
23385;DHT22;11865;45.394;10.978;2023-04-03T00:13:32;8.40;99.90
23385;DHT22;11865;45.394;10.978;2023-04-03T00:16:00;8.30;99.90
23385;DHT22;11865;45.394;10.978;2023-04-03T00:18:27;8.30;99.90
23385;DHT22;11865;45.394;10.978;2023-04-03T00:20:55;8.30;99.90
23385;DHT22;11865;45.394;10.978;2023-04-03T00:23:22;8.30;99.90
23385;DHT22;11865;45.394;10.978;2023-04-03T00:25:52;8.50;99.90
23385;DHT22;11865;45.394;10.978;2023-04-03T00:28:19;9.00;99.90
23385;DHT22;11865;45.394;10.978;2023-04-03T00:30:51;9.60;99.90
23385;DHT22;11865;45.394;10.978;2023-04-03T00:33:19;10.00;99.90
23385;DHT22;11865;45.394;10.978;2023-04-03T00:35:51;10.10;99.90
23385;DHT22;11865;45.394;10.978;2023-04-03T00:38:19;9.80;99.90
23385;DHT22;11865;45.394;10.978;2023-04-03T00:40:49;9.30;99.90
23385;DHT22;11865;45.394;10.978;2023-04-03T00:43:23;9.00;99.90
23385;DHT22;11865;45.394;10.978;2023-04-03T00:45:55;8.80;99.90
23385;DHT22;11865;45.394;10.978;2023-04-03T00:48:30;8.70;99.90
23385;DHT22;11865;45.394;10.978;2023-04-03T00:50:58;8.80;99.90
23385;DHT22;11865;45.394;10.978;2023-04-03T00:53:40;8.80;99.90
23385;DHT22;11865;45.394;10.978;2023-04-03T00:56:12;8.90;99.90
23385;DHT22;11865;45.394;10.978;2023-04-03T00:58:46;8.80;99.90
23385;DHT22;11865;45.394;10.978;2023-04-03T01:01:18;8.70;99.90
23385;DHT22;11865;45.394;10.978;2023-04-03T01:03:47;8.80;99.90
23385;DHT22;11865;45.394;10.978;2023-04-03T01:06:17;8.90;99.90
23385;DHT22;11865;45.394;10.978;2023-04-03T01:08:48;9.20;99.90
23385;DHT22;11865;45.394;10.978;2023-04-03T01:11:16;9.30;99.90
23385;DHT22;11865;45.394;10.978;2023-04-03T01:13:45;9.40;99.90
23385;DHT22;11865;45.394;10.978;2023-04-03T01:16:12;9.20;99.90
23385;DHT22;11865;45.394;10.978;2023-04-03T01:18:41;9.10;99.90
23385;DHT22;11865;45.394;10.978;2023-04-03T01:21:23;8.80;99.90
23385;DHT22;11865;45.394;10.978;2023-04-03T01:26:50;8.90;99.90
23385;DHT22;11865;45.394;10.978;2023-04-03T01:29:18;8.80;99.90
23385;DHT22;11865;45.394;10.978;2023-04-03T01:34:19;8.70;99.90
23385;DHT22;11865;45.394;10.978;2023-04-03T01:36:47;8.80;99.90
23385;DHT22;11865;45.394;10.978;2023-04-03T01:39:15;8.90;99.90
23385;DHT22;11865;45.394;10.978;2023-04-03T01:41:43;8.80;99.90
23385;DHT22;11865;45.394;10.978;2023-04-03T01:44:15;9.00;99.90
23385;DHT22;11865;45.394;10.978;2023-04-03T01:46:44;8.70;99.90
23385;DHT22;11865;45.394;10.978;2023-04-03T01:49:12;8.60;99.90
23385;DHT22;11865;45.394;10.978;2023-04-03T01:51:39;8.20;99.90
23385;DHT22;11865;45.394;10.978;2023-04-03T01:54:07;8.00;99.90
23385;DHT22;11865;45.394;10.978;2023-04-03T01:56:35;7.90;99.90
23385;DHT22;11865;45.394;10.978;2023-04-03T01:59:02;7.70;99.90
23385;DHT22;11865;45.394;10.978;2023-04-03T02:01:30;7.70;99.90
23385;DHT22;11865;45.394;10.978;2023-04-03T02:03:58;7.60;99.90
23385;DHT22;11865;45.394;10.978;2023-04-03T02:06:26;7.60;99.90
23385;DHT22;11865;45.394;10.978;2023-04-03T02:08:54;7.60;99.90
23385;DHT22;11865;45.394;10.978;2023-04-03T02:11:21;7.60;99.90
23385;DHT22;11865;45.394;10.978;2023-04-03T02:13:49;7.80;99.90
23385;DHT22;11865;45.394;10.978;2023-04-03T02:16:16;7.70;99.90
23385;DHT22;11865;45.394;10.978;2023-04-03T02:18:44;7.70;99.90
23385;DHT22;11865;45.394;10.978;2023-04-03T02:23:39;7.50;99.90
23385;DHT22;11865;45.394;10.978;2023-04-03T02:26:09;7.40;99.90
23385;DHT22;11865;45.394;10.978;2023-04-03T02:28:37;7.40;99.90
23385;DHT22;11865;45.394;10.978;2023-04-03T02:31:08;7.60;99.90
23385;DHT22;11865;45.394;10.978;2023-04-03T02:33:38;7.80;99.90
23385;DHT22;11865;45.394;10.978;2023-04-03T02:36:09;8.10;99.90
23385;DHT22;11865;45.394;10.978;2023-04-03T02:38:38;8.20;99.90
23385;DHT22;11865;45.394;10.978;2023-04-03T02:41:08;7.90;99.90
23385;DHT22;11865;45.394;10.978;2023-04-03T02:43:37;7.70;99.90
23385;DHT22;11865;45.394;10.978;2023-04-03T02:46:06;7.40;99.90
23385;DHT22;11865;45.394;10.978;2023-04-03T02:48:34;7.30;99.90
23385;DHT22;11865;45.394;10.978;2023-04-03T02:51:01;7.30;99.90
23385;DHT22;11865;45.394;10.978;2023-04-03T02:53:29;7.10;99.90
23385;DHT22;11865;45.394;10.978;2023-04-03T02:55:57;7.00;99.90
23385;DHT22;11865;45.394;10.978;2023-04-03T03:00:55;7.30;99.90
23385;DHT22;11865;45.394;10.978;2023-04-03T03:06:04;8.40;99.90
23385;DHT22;11865;45.394;10.978;2023-04-03T03:08:33;8.40;99.90
23385;DHT22;11865;45.394;10.978;2023-04-03T03:11:02;8.30;99.90
23385;DHT22;11865;45.394;10.978;2023-04-03T03:13:30;8.00;99.90
23385;DHT22;11865;45.394;10.978;2023-04-03T03:15:58;7.60;99.90
23385;DHT22;11865;45.394;10.978;2023-04-03T03:18:26;7.60;99.90
23385;DHT22;11865;45.394;10.978;2023-04-03T03:20:55;7.50;99.90
23385;DHT22;11865;45.394;10.978;2023-04-03T03:23:25;7.40;99.90
23385;DHT22;11865;45.394;10.978;2023-04-03T03:26:01;7.40;99.90
23385;DHT22;11865;45.394;10.978;2023-04-03T03:28:29;7.30;99.90
23385;DHT22;11865;45.394;10.978;2023-04-03T03:30:58;7.40;99.90
23385;DHT22;11865;45.394;10.978;2023-04-03T03:33:26;7.30;99.90
23385;DHT22;11865;45.394;10.978;2023-04-03T03:35:54;7.30;99.90
23385;DHT22;11865;45.394;10.978;2023-04-03T03:38:22;7.00;99.90
23385;DHT22;11865;45.394;10.978;2023-04-03T03:40:51;6.90;99.90
23385;DHT22;11865;45.394;10.978;2023-04-03T03:43:20;6.90;99.90
23385;DHT22;11865;45.394;10.978;2023-04-03T03:45:51;7.00;99.90
23385;DHT22;11865;45.394;10.978;2023-04-03T03:48:20;7.40;99.90
23385;DHT22;11865;45.394;10.978;2023-04-03T03:53:18;8.20;99.90
23385;DHT22;11865;45.394;10.978;2023-04-03T03:55:48;8.40;99.90
23385;DHT22;11865;45.394;10.978;2023-04-03T03:58:16;8.70;99.90
23385;DHT22;11865;45.394;10.978;2023-04-03T04:00:43;9.10;99.90
23385;DHT22;11865;45.394;10.978;2023-04-03T04:03:11;9.40;99.90
23385;DHT22;11865;45.394;10.978;2023-04-03T04:05:39;9.50;99.90
23385;DHT22;11865;45.394;10.978;2023-04-03T04:08:07;9.70;99.90
23385;DHT22;11865;45.394;10.978;2023-04-03T04:10:35;10.00;99.90
23385;DHT22;11865;45.394;10.978;2023-04-03T04:13:05;10.00;99.90
23385;DHT22;11865;45.394;10.978;2023-04-03T04:15:33;10.00;99.90
23385;DHT22;11865;45.394;10.978;2023-04-03T04:18:02;10.10;99.90
23385;DHT22;11865;45.394;10.978;2023-04-03T04:20:31;10.00;99.90
23385;DHT22;11865;45.394;10.978;2023-04-03T04:22:59;10.10;99.90
23385;DHT22;11865;45.394;10.978;2023-04-03T04:25:27;10.10;99.90
23385;DHT22;11865;45.394;10.978;2023-04-03T04:27:55;10.20;99.90
23385;DHT22;11865;45.394;10.978;2023-04-03T04:30:22;10.30;99.90
23385;DHT22;11865;45.394;10.978;2023-04-03T04:32:50;10.20;99.90
23385;DHT22;11865;45.394;10.978;2023-04-03T04:35:18;10.20;99.90
23385;DHT22;11865;45.394;10.978;2023-04-03T04:37:48;10.20;99.90
23385;DHT22;11865;45.394;10.978;2023-04-03T04:40:17;10.30;99.90
23385;DHT22;11865;45.394;10.978;2023-04-03T04:45:13;10.30;99.90
23385;DHT22;11865;45.394;10.978;2023-04-03T04:47:42;10.30;99.90
23385;DHT22;11865;45.394;10.978;2023-04-03T04:50:11;10.30;99.90
23385;DHT22;11865;45.394;10.978;2023-04-03T04:52:39;10.20;99.90
23385;DHT22;11865;45.394;10.978;2023-04-03T04:55:08;10.10;99.90
23385;DHT22;11865;45.394;10.978;2023-04-03T04:57:35;10.00;99.90
23385;DHT22;11865;45.394;10.978;2023-04-03T05:00:05;10.00;99.90
23385;DHT22;11865;45.394;10.978;2023-04-03T05:02:33;10.00;99.90
23385;DHT22;11865;45.394;10.978;2023-04-03T05:05:03;10.00;99.90
23385;DHT22;11865;45.394;10.978;2023-04-03T05:07:33;10.10;99.90
23385;DHT22;11865;45.394;10.978;2023-04-03T05:10:02;10.10;99.90
23385;DHT22;11865;45.394;10.978;2023-04-03T05:12:32;10.10;99.90
23385;DHT22;11865;45.394;10.978;2023-04-03T05:15:02;10.50;99.90
23385;DHT22;11865;45.394;10.978;2023-04-03T05:17:31;10.60;99.90
23385;DHT22;11865;45.394;10.978;2023-04-03T05:19:59;10.70;99.90
23385;DHT22;11865;45.394;10.978;2023-04-03T05:22:28;10.80;99.90
23385;DHT22;11865;45.394;10.978;2023-04-03T05:25:00;11.00;99.90
23385;DHT22;11865;45.394;10.978;2023-04-03T05:27:28;11.10;99.90
23385;DHT22;11865;45.394;10.978;2023-04-03T05:29:57;11.20;99.90
23385;DHT22;11865;45.394;10.978;2023-04-03T05:32:25;11.20;99.90
23385;DHT22;11865;45.394;10.978;2023-04-03T05:35:16;11.30;99.90
23385;DHT22;11865;45.394;10.978;2023-04-03T05:37:46;11.40;99.90
23385;DHT22;11865;45.394;10.978;2023-04-03T05:40:15;11.50;99.90
23385;DHT22;11865;45.394;10.978;2023-04-03T05:42:47;11.60;99.90
23385;DHT22;11865;45.394;10.978;2023-04-03T05:45:16;11.60;99.90
23385;DHT22;11865;45.394;10.978;2023-04-03T05:47:43;11.80;99.90
23385;DHT22;11865;45.394;10.978;2023-04-03T05:50:12;11.80;99.90
23385;DHT22;11865;45.394;10.978;2023-04-03T05:52:42;12.00;99.90
23385;DHT22;11865;45.394;10.978;2023-04-03T05:55:11;12.30;99.90
23385;DHT22;11865;45.394;10.978;2023-04-03T05:57:39;12.70;99.90
23385;DHT22;11865;45.394;10.978;2023-04-03T06:00:08;13.00;99.70
23385;DHT22;11865;45.394;10.978;2023-04-03T06:02:48;13.10;99.90
23385;DHT22;11865;45.394;10.978;2023-04-03T06:05:21;14.40;98.40
23385;DHT22;11865;45.394;10.978;2023-04-03T06:07:50;14.50;96.70
23385;DHT22;11865;45.394;10.978;2023-04-03T06:10:18;16.10;94.70
23385;DHT22;11865;45.394;10.978;2023-04-03T06:12:45;16.90;92.60
23385;DHT22;11865;45.394;10.978;2023-04-03T06:15:13;17.20;92.20
23385;DHT22;11865;45.394;10.978;2023-04-03T06:17:40;15.50;93.60
23385;DHT22;11865;45.394;10.978;2023-04-03T06:20:08;14.30;96.30
23385;DHT22;11865;45.394;10.978;2023-04-03T06:22:36;14.00;97.80
23385;DHT22;11865;45.394;10.978;2023-04-03T06:25:04;15.60;96.40
23385;DHT22;11865;45.394;10.978;2023-04-03T06:27:33;16.30;94.40
23385;DHT22;11865;45.394;10.978;2023-04-03T06:30:00;16.50;94.00
23385;DHT22;11865;45.394;10.978;2023-04-03T06:32:28;16.70;93.40
23385;DHT22;11865;45.394;10.978;2023-04-03T06:34:55;16.40;93.10
23385;DHT22;11865;45.394;10.978;2023-04-03T06:37:24;16.30;92.70
23385;DHT22;11865;45.394;10.978;2023-04-03T06:39:59;16.50;93.20
23385;DHT22;11865;45.394;10.978;2023-04-03T06:42:27;16.70;93.10
23385;DHT22;11865;45.394;10.978;2023-04-03T06:45:04;17.80;92.50
23385;DHT22;11865;45.394;10.978;2023-04-03T06:47:32;17.70;92.30
23385;DHT22;11865;45.394;10.978;2023-04-03T06:49:59;17.70;90.90
23385;DHT22;11865;45.394;10.978;2023-04-03T06:52:27;17.20;92.10
23385;DHT22;11865;45.394;10.978;2023-04-03T06:54:54;16.60;92.80
23385;DHT22;11865;45.394;10.978;2023-04-03T06:57:25;15.20;93.90
23385;DHT22;11865;45.394;10.978;2023-04-03T06:59:52;15.50;94.10
23385;DHT22;11865;45.394;10.978;2023-04-03T07:02:20;15.70;94.70
23385;DHT22;11865;45.394;10.978;2023-04-03T07:04:48;15.30;95.20
23385;DHT22;11865;45.394;10.978;2023-04-03T07:07:16;14.70;96.20
23385;DHT22;11865;45.394;10.978;2023-04-03T07:09:44;15.00;95.70
23385;DHT22;11865;45.394;10.978;2023-04-03T07:12:14;15.10;95.70
23385;DHT22;11865;45.394;10.978;2023-04-03T07:14:42;15.20;95.20
23385;DHT22;11865;45.394;10.978;2023-04-03T07:17:10;15.40;95.30
23385;DHT22;11865;45.394;10.978;2023-04-03T07:19:37;15.10;95.40
23385;DHT22;11865;45.394;10.978;2023-04-03T07:22:05;14.60;95.70
23385;DHT22;11865;45.394;10.978;2023-04-03T07:24:32;15.30;95.60
23385;DHT22;11865;45.394;10.978;2023-04-03T07:27:00;15.60;94.00
23385;DHT22;11865;45.394;10.978;2023-04-03T07:29:28;16.00;94.30
23385;DHT22;11865;45.394;10.978;2023-04-03T07:31:56;15.80;94.90
23385;DHT22;11865;45.394;10.978;2023-04-03T07:34:24;15.80;95.00
23385;DHT22;11865;45.394;10.978;2023-04-03T07:36:51;16.40;94.80
23385;DHT22;11865;45.394;10.978;2023-04-03T07:39:18;16.70;94.60
23385;DHT22;11865;45.394;10.978;2023-04-03T07:41:46;14.60;96.10
23385;DHT22;11865;45.394;10.978;2023-04-03T07:44:13;14.50;97.00
23385;DHT22;11865;45.394;10.978;2023-04-03T07:46:41;14.20;97.90
23385;DHT22;11865;45.394;10.978;2023-04-03T07:49:09;14.10;97.30
23385;DHT22;11865;45.394;10.978;2023-04-03T07:51:37;13.80;97.90
23385;DHT22;11865;45.394;10.978;2023-04-03T07:54:05;14.00;98.60
23385;DHT22;11865;45.394;10.978;2023-04-03T07:56:32;14.20;98.10
23385;DHT22;11865;45.394;10.978;2023-04-03T07:59:00;13.70;97.90
23385;DHT22;11865;45.394;10.978;2023-04-03T08:01:28;13.70;97.80
23385;DHT22;11865;45.394;10.978;2023-04-03T08:03:56;13.90;97.70
23385;DHT22;11865;45.394;10.978;2023-04-03T08:06:23;13.80;97.60
23385;DHT22;11865;45.394;10.978;2023-04-03T08:09:11;13.80;97.20
23385;DHT22;11865;45.394;10.978;2023-04-03T08:11:39;13.90;97.00
23385;DHT22;11865;45.394;10.978;2023-04-03T08:14:07;13.90;97.30
23385;DHT22;11865;45.394;10.978;2023-04-03T08:16:34;13.70;96.90
23385;DHT22;11865;45.394;10.978;2023-04-03T08:19:02;14.00;97.30
23385;DHT22;11865;45.394;10.978;2023-04-03T08:21:35;14.20;97.40
23385;DHT22;11865;45.394;10.978;2023-04-03T08:24:03;14.30;97.20
23385;DHT22;11865;45.394;10.978;2023-04-03T08:26:31;13.90;96.70
23385;DHT22;11865;45.394;10.978;2023-04-03T08:28:58;14.20;96.90
23385;DHT22;11865;45.394;10.978;2023-04-03T08:31:26;14.00;96.20
23385;DHT22;11865;45.394;10.978;2023-04-03T08:33:56;14.10;96.60
23385;DHT22;11865;45.394;10.978;2023-04-03T08:36:27;14.20;96.50
23385;DHT22;11865;45.394;10.978;2023-04-03T08:38:56;14.20;98.40
23385;DHT22;11865;45.394;10.978;2023-04-03T08:47:04;14.20;96.80
23385;DHT22;11865;45.394;10.978;2023-04-03T08:49:48;14.30;95.80
23385;DHT22;11865;45.394;10.978;2023-04-03T08:52:26;14.30;96.50
23385;DHT22;11865;45.394;10.978;2023-04-03T08:54:57;14.50;96.30
23385;DHT22;11865;45.394;10.978;2023-04-03T08:57:34;14.50;95.90
23385;DHT22;11865;45.394;10.978;2023-04-03T09:00:21;14.30;95.70
23385;DHT22;11865;45.394;10.978;2023-04-03T09:02:52;14.40;96.60
23385;DHT22;11865;45.394;10.978;2023-04-03T09:10:52;14.30;95.20
23385;DHT22;11865;45.394;10.978;2023-04-03T09:13:41;14.60;96.30
23385;DHT22;11865;45.394;10.978;2023-04-03T09:16:35;14.60;95.50
23385;DHT22;11865;45.394;10.978;2023-04-03T09:19:19;14.70;95.50
23385;DHT22;11865;45.394;10.978;2023-04-03T09:21:48;15.20;95.00
23385;DHT22;11865;45.394;10.978;2023-04-03T09:24:16;15.10;94.40
23385;DHT22;11865;45.394;10.978;2023-04-03T09:27:01;15.00;94.20
23385;DHT22;11865;45.394;10.978;2023-04-03T09:29:31;15.00;94.70
23385;DHT22;11865;45.394;10.978;2023-04-03T09:32:02;15.10;94.90
23385;DHT22;11865;45.394;10.978;2023-04-03T09:34:37;14.80;94.30
23385;DHT22;11865;45.394;10.978;2023-04-03T09:37:05;14.60;94.80
23385;DHT22;11865;45.394;10.978;2023-04-03T09:39:50;14.50;95.40
23385;DHT22;11865;45.394;10.978;2023-04-03T09:42:23;14.40;96.10
23385;DHT22;11865;45.394;10.978;2023-04-03T09:44:59;15.00;95.30
23385;DHT22;11865;45.394;10.978;2023-04-03T09:47:33;15.10;95.50
23385;DHT22;11865;45.394;10.978;2023-04-03T09:50:20;15.30;94.50
23385;DHT22;11865;45.394;10.978;2023-04-03T09:52:50;15.60;94.40
23385;DHT22;11865;45.394;10.978;2023-04-03T09:55:24;15.10;94.40
23385;DHT22;11865;45.394;10.978;2023-04-03T09:57:59;15.30;94.30
23385;DHT22;11865;45.394;10.978;2023-04-03T10:00:35;15.40;94.40
23385;DHT22;11865;45.394;10.978;2023-04-03T10:03:05;15.20;93.20
23385;DHT22;11865;45.394;10.978;2023-04-03T10:05:38;15.10;94.00
23385;DHT22;11865;45.394;10.978;2023-04-03T10:10:44;14.70;94.30
23385;DHT22;11865;45.394;10.978;2023-04-03T10:13:18;14.60;95.00
23385;DHT22;11865;45.394;10.978;2023-04-03T10:15:55;14.90;94.30
23385;DHT22;11865;45.394;10.978;2023-04-03T10:21:15;14.80;93.60
23385;DHT22;11865;45.394;10.978;2023-04-03T10:38:15;15.20;93.60
23385;DHT22;11865;45.394;10.978;2023-04-03T10:40:57;15.00;93.10
23385;DHT22;11865;45.394;10.978;2023-04-03T10:54:40;15.20;92.50
23385;DHT22;11865;45.394;10.978;2023-04-03T10:57:11;15.00;93.30
23385;DHT22;11865;45.394;10.978;2023-04-03T11:02:23;15.10;93.10
23385;DHT22;11865;45.394;10.978;2023-04-03T11:05:17;15.10;93.40
23385;DHT22;11865;45.394;10.978;2023-04-03T11:07:48;15.00;92.20
23385;DHT22;11865;45.394;10.978;2023-04-03T11:10:23;15.20;91.40
23385;DHT22;11865;45.394;10.978;2023-04-03T11:13:02;15.30;92.10
23385;DHT22;11865;45.394;10.978;2023-04-03T11:15:34;15.50;92.20
23385;DHT22;11865;45.394;10.978;2023-04-03T11:18:06;15.70;91.70
23385;DHT22;11865;45.394;10.978;2023-04-03T11:20:42;15.80;91.70
23385;DHT22;11865;45.394;10.978;2023-04-03T11:25:56;15.10;91.60
23385;DHT22;11865;45.394;10.978;2023-04-03T11:28:25;14.90;91.70
23385;DHT22;11865;45.394;10.978;2023-04-03T11:36:32;15.00;93.00
23385;DHT22;11865;45.394;10.978;2023-04-03T11:39:28;15.20;92.10
23385;DHT22;11865;45.394;10.978;2023-04-03T11:44:46;14.80;91.20
23385;DHT22;11865;45.394;10.978;2023-04-03T11:47:44;14.90;91.30
23385;DHT22;11865;45.394;10.978;2023-04-03T11:50:38;15.40;91.60
23385;DHT22;11865;45.394;10.978;2023-04-03T12:00:52;14.80;90.80
23385;DHT22;11865;45.394;10.978;2023-04-03T12:03:32;14.90;91.20
23385;DHT22;11865;45.394;10.978;2023-04-03T12:08:45;14.90;90.50
23385;DHT22;11865;45.394;10.978;2023-04-03T12:27:07;15.10;90.50
23385;DHT22;11865;45.394;10.978;2023-04-03T12:46:53;15.30;90.30
23385;DHT22;11865;45.394;10.978;2023-04-03T12:51:57;15.50;89.40
23385;DHT22;11865;45.394;10.978;2023-04-03T12:54:32;15.70;90.60
23385;DHT22;11865;45.394;10.978;2023-04-03T12:57:24;15.60;87.70
23385;DHT22;11865;45.394;10.978;2023-04-03T12:59:51;15.80;89.20
23385;DHT22;11865;45.394;10.978;2023-04-03T13:02:29;15.80;88.20
23385;DHT22;11865;45.394;10.978;2023-04-03T13:05:18;15.50;86.70
23385;DHT22;11865;45.394;10.978;2023-04-03T13:07:59;15.70;88.30
23385;DHT22;11865;45.394;10.978;2023-04-03T13:10:27;15.50;87.40
23385;DHT22;11865;45.394;10.978;2023-04-03T13:13:06;15.50;88.80
23385;DHT22;11865;45.394;10.978;2023-04-03T13:15:46;15.10;89.00
23385;DHT22;11865;45.394;10.978;2023-04-03T13:20:50;15.10;89.00
23385;DHT22;11865;45.394;10.978;2023-04-03T13:23:19;15.10;89.30
23385;DHT22;11865;45.394;10.978;2023-04-03T13:25:48;15.30;88.90
23385;DHT22;11865;45.394;10.978;2023-04-03T13:28:20;15.60;90.30
23385;DHT22;11865;45.394;10.978;2023-04-03T13:33:29;15.30;88.10
23385;DHT22;11865;45.394;10.978;2023-04-03T13:36:18;15.70;90.60
23385;DHT22;11865;45.394;10.978;2023-04-03T13:38:51;15.70;90.20
23385;DHT22;11865;45.394;10.978;2023-04-03T13:41:31;15.50;88.90
23385;DHT22;11865;45.394;10.978;2023-04-03T13:46:50;15.50;90.20
23385;DHT22;11865;45.394;10.978;2023-04-03T13:51:49;15.40;90.80
23385;DHT22;11865;45.394;10.978;2023-04-03T13:54:37;15.30;90.60
23385;DHT22;11865;45.394;10.978;2023-04-03T13:57:14;15.30;90.20
23385;DHT22;11865;45.394;10.978;2023-04-03T13:59:43;15.40;90.30
23385;DHT22;11865;45.394;10.978;2023-04-03T14:02:32;15.40;90.10
23385;DHT22;11865;45.394;10.978;2023-04-03T14:05:01;15.30;90.40
23385;DHT22;11865;45.394;10.978;2023-04-03T14:07:30;15.10;90.30
23385;DHT22;11865;45.394;10.978;2023-04-03T14:09:58;15.10;90.00
23385;DHT22;11865;45.394;10.978;2023-04-03T14:12:33;15.10;90.20
23385;DHT22;11865;45.394;10.978;2023-04-03T14:15:02;15.20;90.40
23385;DHT22;11865;45.394;10.978;2023-04-03T14:17:31;15.30;89.50
23385;DHT22;11865;45.394;10.978;2023-04-03T14:19:58;15.40;90.00
23385;DHT22;11865;45.394;10.978;2023-04-03T14:22:31;15.30;89.10
23385;DHT22;11865;45.394;10.978;2023-04-03T14:25:00;15.30;87.30
23385;DHT22;11865;45.394;10.978;2023-04-03T14:27:34;15.20;88.20
23385;DHT22;11865;45.394;10.978;2023-04-03T14:30:03;15.10;88.30
23385;DHT22;11865;45.394;10.978;2023-04-03T14:32:32;14.90;88.50
23385;DHT22;11865;45.394;10.978;2023-04-03T14:35:00;15.30;90.20
23385;DHT22;11865;45.394;10.978;2023-04-03T14:37:29;15.30;90.00
23385;DHT22;11865;45.394;10.978;2023-04-03T14:39:59;15.30;90.10
23385;DHT22;11865;45.394;10.978;2023-04-03T14:42:30;15.10;87.60
23385;DHT22;11865;45.394;10.978;2023-04-03T14:44:59;15.10;88.50
23385;DHT22;11865;45.394;10.978;2023-04-03T14:47:29;15.10;88.90
23385;DHT22;11865;45.394;10.978;2023-04-03T14:50:04;15.00;88.60
23385;DHT22;11865;45.394;10.978;2023-04-03T14:52:34;15.20;89.90
23385;DHT22;11865;45.394;10.978;2023-04-03T14:55:05;15.10;89.80
23385;DHT22;11865;45.394;10.978;2023-04-03T14:57:33;15.20;88.80
23385;DHT22;11865;45.394;10.978;2023-04-03T15:00:03;15.40;89.90
23385;DHT22;11865;45.394;10.978;2023-04-03T15:02:38;15.30;88.70
23385;DHT22;11865;45.394;10.978;2023-04-03T15:05:08;15.20;87.40
23385;DHT22;11865;45.394;10.978;2023-04-03T15:08:00;15.10;87.90
23385;DHT22;11865;45.394;10.978;2023-04-03T15:10:29;15.30;89.20
23385;DHT22;11865;45.394;10.978;2023-04-03T15:12:57;15.30;87.20
23385;DHT22;11865;45.394;10.978;2023-04-03T15:15:28;15.10;87.60
23385;DHT22;11865;45.394;10.978;2023-04-03T15:17:57;15.30;87.80
23385;DHT22;11865;45.394;10.978;2023-04-03T15:20:27;15.30;87.30
23385;DHT22;11865;45.394;10.978;2023-04-03T15:22:55;15.30;88.30
23385;DHT22;11865;45.394;10.978;2023-04-03T15:25:24;15.20;87.80
23385;DHT22;11865;45.394;10.978;2023-04-03T15:27:54;15.20;87.80
23385;DHT22;11865;45.394;10.978;2023-04-03T15:30:22;15.20;88.00
23385;DHT22;11865;45.394;10.978;2023-04-03T15:32:50;15.20;86.80
23385;DHT22;11865;45.394;10.978;2023-04-03T15:35:17;15.30;86.70
23385;DHT22;11865;45.394;10.978;2023-04-03T15:37:45;15.20;85.70
23385;DHT22;11865;45.394;10.978;2023-04-03T15:40:13;15.30;88.60
23385;DHT22;11865;45.394;10.978;2023-04-03T15:42:41;15.20;86.40
23385;DHT22;11865;45.394;10.978;2023-04-03T15:45:09;15.10;85.10
23385;DHT22;11865;45.394;10.978;2023-04-03T15:47:37;14.90;85.10
23385;DHT22;11865;45.394;10.978;2023-04-03T15:50:06;14.90;86.30
23385;DHT22;11865;45.394;10.978;2023-04-03T15:52:35;14.80;84.20
23385;DHT22;11865;45.394;10.978;2023-04-03T15:55:03;14.90;85.50
23385;DHT22;11865;45.394;10.978;2023-04-03T15:57:31;14.90;85.20
23385;DHT22;11865;45.394;10.978;2023-04-03T16:00:04;14.90;85.20
23385;DHT22;11865;45.394;10.978;2023-04-03T16:02:33;14.80;84.80
23385;DHT22;11865;45.394;10.978;2023-04-03T16:05:01;14.80;84.10
23385;DHT22;11865;45.394;10.978;2023-04-03T16:07:29;14.80;84.20
23385;DHT22;11865;45.394;10.978;2023-04-03T16:09:57;14.80;84.00
23385;DHT22;11865;45.394;10.978;2023-04-03T16:12:24;14.80;84.80
23385;DHT22;11865;45.394;10.978;2023-04-03T16:14:52;14.80;84.30
23385;DHT22;11865;45.394;10.978;2023-04-03T16:17:20;14.70;83.90
23385;DHT22;11865;45.394;10.978;2023-04-03T16:19:47;14.70;86.00
23385;DHT22;11865;45.394;10.978;2023-04-03T16:22:15;14.70;86.10
23385;DHT22;11865;45.394;10.978;2023-04-03T16:24:43;14.50;84.30
23385;DHT22;11865;45.394;10.978;2023-04-03T16:27:10;14.40;85.50
23385;DHT22;11865;45.394;10.978;2023-04-03T16:29:38;14.30;83.90
23385;DHT22;11865;45.394;10.978;2023-04-03T16:32:05;14.20;84.00
23385;DHT22;11865;45.394;10.978;2023-04-03T16:34:33;14.10;84.90
23385;DHT22;11865;45.394;10.978;2023-04-03T16:37:00;14.10;84.30
23385;DHT22;11865;45.394;10.978;2023-04-03T16:39:28;14.00;83.60
23385;DHT22;11865;45.394;10.978;2023-04-03T16:41:56;14.10;85.00
23385;DHT22;11865;45.394;10.978;2023-04-03T16:44:23;14.10;85.10
23385;DHT22;11865;45.394;10.978;2023-04-03T16:46:50;14.10;84.10
23385;DHT22;11865;45.394;10.978;2023-04-03T16:49:18;14.00;83.70
23385;DHT22;11865;45.394;10.978;2023-04-03T16:51:48;14.10;84.10
23385;DHT22;11865;45.394;10.978;2023-04-03T16:54:15;14.00;83.70
23385;DHT22;11865;45.394;10.978;2023-04-03T16:56:43;13.80;83.10
23385;DHT22;11865;45.394;10.978;2023-04-03T16:59:10;13.80;83.80
23385;DHT22;11865;45.394;10.978;2023-04-03T17:01:38;13.70;83.10
23385;DHT22;11865;45.394;10.978;2023-04-03T17:04:06;13.70;83.70
23385;DHT22;11865;45.394;10.978;2023-04-03T17:06:33;13.70;83.30
23385;DHT22;11865;45.394;10.978;2023-04-03T17:09:01;13.60;84.20
23385;DHT22;11865;45.394;10.978;2023-04-03T17:11:30;13.40;84.20
23385;DHT22;11865;45.394;10.978;2023-04-03T17:13:57;13.50;85.80
23385;DHT22;11865;45.394;10.978;2023-04-03T17:16:25;13.40;85.00
23385;DHT22;11865;45.394;10.978;2023-04-03T17:18:54;13.40;84.20
23385;DHT22;11865;45.394;10.978;2023-04-03T17:21:22;13.40;84.90
23385;DHT22;11865;45.394;10.978;2023-04-03T17:23:54;13.30;84.80
23385;DHT22;11865;45.394;10.978;2023-04-03T17:26:25;13.30;83.90
23385;DHT22;11865;45.394;10.978;2023-04-03T17:28:53;13.20;83.80
23385;DHT22;11865;45.394;10.978;2023-04-03T17:31:21;13.20;83.10
23385;DHT22;11865;45.394;10.978;2023-04-03T17:33:48;13.10;85.10
23385;DHT22;11865;45.394;10.978;2023-04-03T17:36:16;13.10;83.90
23385;DHT22;11865;45.394;10.978;2023-04-03T17:38:43;13.00;82.60
23385;DHT22;11865;45.394;10.978;2023-04-03T17:41:11;13.10;83.00
23385;DHT22;11865;45.394;10.978;2023-04-03T17:43:39;13.00;81.60
23385;DHT22;11865;45.394;10.978;2023-04-03T17:46:08;13.00;83.90
23385;DHT22;11865;45.394;10.978;2023-04-03T17:48:38;13.00;81.50
23385;DHT22;11865;45.394;10.978;2023-04-03T17:51:09;12.90;82.10